Time;durP1;ratioP1;P1;durP2;ratioP2;P2;SDS_P1;SDS_P2;PMS_P1;PMS_P2;Temp;Humidity;BMP_temperature;BMP_pressure;BME280_temperature;BME280_humidity;BME280_pressure;Samples;Min_cycle;Max_cycle;Signal;HPM_P1;HPM_P2
2023/08/21 00:02:21;;;;;;;5.97;3.30;;;;;;;;;;5032463;28;20036;-79
2023/08/21 00:04:46;;;;;;;5.43;2.92;;;;;;;;;;5071517;28;20127;-78
2023/08/21 00:07:12;;;;;;;7.00;3.60;;;;;;;;;;5040468;28;20028;-78
2023/08/21 00:09:38;;;;;;;5.50;3.40;;;;;;;;;;5040260;28;20021;-77
2023/08/21 00:12:04;;;;;;;7.65;3.47;;;;;;;;;;5029655;28;20072;-80
2023/08/21 00:14:30;;;;;;;8.48;3.97;;;;;;;;;;5040160;28;20029;-77
2023/08/21 00:16:55;;;;;;;9.38;3.63;;;;;;;;;;5053480;28;20028;-78
2023/08/21 00:19:21;;;;;;;6.78;3.55;;;;;;;;;;5024140;28;20039;-77
2023/08/21 00:21:47;;;;;;;5.70;3.65;;;;;;;;;;5060472;28;20086;-79
2023/08/21 00:24:13;;;;;;;9.02;3.40;;;;;;;;;;5041571;28;20279;-78
2023/08/21 00:26:38;;;;;;;5.75;3.22;;;;;;;;;;5026755;28;20400;-78
2023/08/21 00:29:04;;;;;;;8.18;3.40;;;;;;;;;;5019823;28;20059;-79
2023/08/21 00:31:31;;;;;;;9.10;4.03;;;;;;;;;;5036077;28;20032;-78
2023/08/21 00:33:57;;;;;;;6.32;3.47;;;;;;;;;;5056104;28;20024;-78
2023/08/21 00:36:22;;;;;;;6.35;3.38;;;;;;;;;;5036247;28;20025;-79
2023/08/21 00:38:48;;;;;;;5.13;3.22;;;;;;;;;;5023242;28;20439;-79
2023/08/21 00:41:14;;;;;;;6.90;3.40;;;;;;;;;;5056008;28;20024;-79
2023/08/21 00:43:40;;;;;;;7.57;3.58;;;;;;;;;;5030012;28;20056;-78
2023/08/21 00:46:06;;;;;;;5.22;3.05;;;;;;;;;;5067111;28;20507;-78
2023/08/21 00:48:32;;;;;;;7.75;3.30;;;;;;;;;;5041440;28;20139;-78
2023/08/21 00:50:58;;;;;;;7.55;3.67;;;;;;;;;;5038677;28;20114;-78
2023/08/21 00:53:24;;;;;;;6.43;3.20;;;;;;;;;;5055854;28;20025;-79
2023/08/21 00:55:51;;;;;;;8.17;3.47;;;;;;;;;;5055877;28;20098;-79
2023/08/21 00:58:17;;;;;;;5.85;3.13;;;;;;;;;;5073843;28;20293;-79
2023/08/21 01:00:45;;;;;;;9.70;3.03;;;;;;;;;;5073801;28;20132;-77
2023/08/21 01:03:11;;;;;;;6.07;3.15;;;;;;;;;;5055603;28;20025;-79
2023/08/21 01:05:36;;;;;;;5.38;3.20;;;;;;;;;;5056023;28;20094;-78
2023/08/21 01:08:04;;;;;;;6.03;3.33;;;;;;;;;;5035514;28;20052;-79
2023/08/21 01:10:48;;;;;;;5.75;3.50;;;;;;;;;;5055694;28;20075;-78
2023/08/21 01:13:33;;;;;;;6.68;3.60;;;;;;;;;;5055098;28;20020;-78
2023/08/21 01:15:58;;;;;;;6.07;3.40;;;;;;;;;;5044434;28;20104;-79
2023/08/21 01:18:26;;;;;;;8.32;3.47;;;;;;;;;;5052132;28;20156;-80
2023/08/21 01:20:52;;;;;;;8.60;3.65;;;;;;;;;;5055282;28;20028;-77
2023/08/21 01:23:30;;;;;;;8.07;3.60;;;;;;;;;;5038594;28;20059;-78
2023/08/21 01:25:55;;;;;;;6.47;3.10;;;;;;;;;;5055370;28;20085;-78
2023/08/21 01:28:22;;;;;;;4.93;3.20;;;;;;;;;;5055317;28;20040;-77
2023/08/21 01:30:49;;;;;;;7.72;3.60;;;;;;;;;;5038630;28;20028;-80
2023/08/21 01:33:15;;;;;;;5.57;3.50;;;;;;;;;;5071469;28;20103;-79
2023/08/21 01:35:42;;;;;;;6.70;3.55;;;;;;;;;;5038719;28;20020;-77
2023/08/21 01:38:08;;;;;;;9.57;4.18;;;;;;;;;;5055320;28;20035;-77
2023/08/21 01:40:36;;;;;;;5.43;3.25;;;;;;;;;;5071686;28;20020;-78
2023/08/21 01:43:34;;;;;;;7.45;3.55;;;;;;;;;;5059570;28;20028;-76
2023/08/21 01:46:01;;;;;;;5.80;3.58;;;;;;;;;;5055340;28;20024;-79
2023/08/21 01:48:26;;;;;;;5.57;3.47;;;;;;;;;;5028185;28;20028;-77
2023/08/21 01:50:52;;;;;;;8.18;3.70;;;;;;;;;;5037620;28;20260;-79
2023/08/21 01:53:18;;;;;;;9.43;3.55;;;;;;;;;;5036719;28;20487;-78
2023/08/21 01:55:43;;;;;;;7.57;3.85;;;;;;;;;;5049146;28;20025;-78
2023/08/21 01:58:09;;;;;;;6.82;3.67;;;;;;;;;;5038016;28;20036;-77
2023/08/21 02:00:35;;;;;;;6.15;3.42;;;;;;;;;;5038369;28;20495;-79
2023/08/21 02:03:01;;;;;;;7.65;3.83;;;;;;;;;;5051228;28;20029;-77
2023/08/21 02:05:27;;;;;;;7.45;3.72;;;;;;;;;;5038259;28;20433;-80
2023/08/21 02:07:52;;;;;;;6.93;3.83;;;;;;;;;;5034915;28;20041;-80
2023/08/21 02:10:18;;;;;;;5.65;3.30;;;;;;;;;;5067497;28;20047;-81
2023/08/21 02:12:43;;;;;;;6.43;3.80;;;;;;;;;;5072106;28;20043;-77
2023/08/21 02:15:10;;;;;;;5.93;3.45;;;;;;;;;;5034803;28;20028;-79
2023/08/21 02:17:36;;;;;;;7.72;3.80;;;;;;;;;;5054674;28;20035;-78
2023/08/21 02:20:02;;;;;;;7.57;3.63;;;;;;;;;;5038856;28;20340;-78
2023/08/21 02:22:28;;;;;;;5.93;3.53;;;;;;;;;;5038649;28;20376;-77
2023/08/21 02:24:53;;;;;;;6.47;3.75;;;;;;;;;;5055430;28;20079;-79
2023/08/21 02:27:19;;;;;;;8.38;3.67;;;;;;;;;;5052226;28;20071;-78
2023/08/21 02:29:46;;;;;;;5.43;3.72;;;;;;;;;;5064175;28;20023;-80
2023/08/21 02:32:12;;;;;;;5.60;3.53;;;;;;;;;;5072711;28;20111;-80
2023/08/21 02:34:39;;;;;;;7.18;3.53;;;;;;;;;;5039671;28;20032;-80
2023/08/21 02:37:05;;;;;;;6.47;3.15;;;;;;;;;;5056773;28;20064;-80
2023/08/21 02:39:31;;;;;;;6.50;3.38;;;;;;;;;;5073519;28;20052;-79
2023/08/21 02:41:56;;;;;;;11.57;5.40;;;;;;;;;;5054460;28;20044;-79
2023/08/21 02:44:22;;;;;;;11.23;7.32;;;;;;;;;;5072165;28;20032;-78
2023/08/21 02:46:48;;;;;;;15.73;4.47;;;;;;;;;;5037896;28;20535;-78
2023/08/21 02:49:13;;;;;;;7.10;4.30;;;;;;;;;;5045903;28;20395;-78
2023/08/21 02:51:39;;;;;;;8.13;4.22;;;;;;;;;;5053762;28;20048;-79
2023/08/21 02:54:05;;;;;;;9.70;4.10;;;;;;;;;;5071542;28;20060;-77
2023/08/21 02:56:30;;;;;;;5.90;3.42;;;;;;;;;;5053598;28;20029;-77
2023/08/21 02:58:56;;;;;;;7.22;3.95;;;;;;;;;;5071594;28;20024;-78
2023/08/21 03:01:22;;;;;;;24.80;18.00;;;;;;;;;;5037019;28;20069;-77
2023/08/21 03:03:47;;;;;;;11.50;6.43;;;;;;;;;;5053506;28;20032;-79
2023/08/21 03:06:16;;;;;;;12.65;5.40;;;;;;;;;;5037142;28;20040;-78
2023/08/21 03:08:43;;;;;;;7.88;4.05;;;;;;;;;;5037340;28;20491;-79
2023/08/21 03:11:09;;;;;;;9.73;4.28;;;;;;;;;;5053307;28;20468;-78
2023/08/21 03:13:35;;;;;;;6.95;3.92;;;;;;;;;;5053813;22;20093;-76
2023/08/21 03:16:00;;;;;;;7.13;4.00;;;;;;;;;;5050125;28;20025;-77
2023/08/21 03:18:30;;;;;;;8.20;4.18;;;;;;;;;;5051046;28;20029;-76
2023/08/21 03:20:56;;;;;;;8.80;4.40;;;;;;;;;;5041756;28;20128;-77
2023/08/21 03:23:21;;;;;;;12.15;4.55;;;;;;;;;;5066851;28;20036;-77
2023/08/21 03:25:47;;;;;;;9.52;4.57;;;;;;;;;;5028316;28;20124;-77
2023/08/21 03:28:13;;;;;;;11.88;4.68;;;;;;;;;;5054335;28;20057;-76
2023/08/21 03:30:40;;;;;;;10.65;5.25;;;;;;;;;;5067004;28;20034;-77
2023/08/21 03:33:07;;;;;;;10.23;6.20;;;;;;;;;;5058102;28;20075;-77
2023/08/21 03:35:32;;;;;;;20.88;13.50;;;;;;;;;;5050468;28;20025;-77
2023/08/21 03:37:58;;;;;;;23.85;13.15;;;;;;;;;;5047591;28;20091;-77
2023/08/21 03:40:24;;;;;;;16.38;7.80;;;;;;;;;;5062338;28;20033;-77
2023/08/21 03:42:51;;;;;;;12.75;6.20;;;;;;;;;;5049678;28;20100;-77
2023/08/21 03:45:16;;;;;;;13.68;6.63;;;;;;;;;;5051111;28;20121;-77
2023/08/21 03:47:42;;;;;;;11.88;6.55;;;;;;;;;;5050813;28;20025;-76
2023/08/21 03:50:15;;;;;;;12.85;5.55;;;;;;;;;;5049977;28;20033;-77
2023/08/21 03:52:40;;;;;;;8.13;4.18;;;;;;;;;;5033422;28;20090;-77
2023/08/21 03:55:07;;;;;;;10.07;4.13;;;;;;;;;;5049801;28;20028;-76
2023/08/21 03:57:33;;;;;;;9.15;4.80;;;;;;;;;;5033648;28;20028;-78
2023/08/21 03:59:59;;;;;;;10.00;5.15;;;;;;;;;;5050379;28;20033;-77
2023/08/21 04:02:24;;;;;;;7.57;4.55;;;;;;;;;;5050852;28;20025;-77
2023/08/21 04:04:50;;;;;;;10.55;6.07;;;;;;;;;;5049588;28;20028;-76
2023/08/21 04:07:15;;;;;;;8.65;4.72;;;;;;;;;;5050919;28;20025;-77
2023/08/21 04:09:41;;;;;;;14.98;5.22;;;;;;;;;;5049649;28;20021;-77
2023/08/21 04:12:06;;;;;;;14.35;6.55;;;;;;;;;;5049603;28;20404;-77
2023/08/21 04:14:32;;;;;;;11.80;6.35;;;;;;;;;;5048924;28;20036;-76
2023/08/21 04:16:57;;;;;;;15.20;5.20;;;;;;;;;;5050596;28;20070;-78
2023/08/21 04:19:23;;;;;;;9.35;4.82;;;;;;;;;;5050773;28;20025;-77
2023/08/21 04:21:48;;;;;;;11.35;6.07;;;;;;;;;;5049350;28;20079;-76
2023/08/21 04:24:14;;;;;;;11.27;5.40;;;;;;;;;;5045584;28;20112;-76
2023/08/21 04:26:39;;;;;;;9.93;5.35;;;;;;;;;;5051208;28;20057;-76
2023/08/21 04:29:05;;;;;;;11.15;5.53;;;;;;;;;;5054427;28;20497;-76
2023/08/21 04:31:30;;;;;;;9.80;5.53;;;;;;;;;;5036303;28;20025;-77
2023/08/21 04:33:56;;;;;;;9.52;5.03;;;;;;;;;;5054064;28;20028;-77
2023/08/21 04:36:22;;;;;;;11.38;4.93;;;;;;;;;;5047904;28;20481;-77
2023/08/21 04:38:49;;;;;;;9.98;4.55;;;;;;;;;;5049938;28;20554;-77
2023/08/21 04:41:14;;;;;;;9.77;4.35;;;;;;;;;;5039256;28;20096;-77
2023/08/21 04:43:43;;;;;;;8.93;4.10;;;;;;;;;;5062306;28;20590;-77
2023/08/21 04:46:10;;;;;;;9.80;4.43;;;;;;;;;;5036203;28;20037;-77
2023/08/21 04:48:37;;;;;;;8.05;4.50;;;;;;;;;;5028226;28;20052;-77
2023/08/21 04:51:03;;;;;;;9.13;4.65;;;;;;;;;;5052783;28;20032;-76
2023/08/21 04:53:29;;;;;;;9.35;4.80;;;;;;;;;;5052455;28;20483;-77
2023/08/21 04:55:58;;;;;;;11.48;4.80;;;;;;;;;;5036233;28;20036;-76
2023/08/21 04:58:24;;;;;;;9.23;4.97;;;;;;;;;;5045317;28;20025;-76
2023/08/21 05:00:50;;;;;;;9.98;4.63;;;;;;;;;;5037156;28;20093;-77
2023/08/21 05:03:15;;;;;;;11.45;4.72;;;;;;;;;;5029998;28;20440;-77
2023/08/21 05:05:54;;;;;;;8.30;5.25;;;;;;;;;;5052804;28;20047;-76
2023/08/21 05:08:20;;;;;;;8.90;4.55;;;;;;;;;;5038101;28;20061;-78
2023/08/21 05:10:46;;;;;;;14.27;6.20;;;;;;;;;;5035713;28;20075;-77
2023/08/21 05:13:11;;;;;;;9.30;5.15;;;;;;;;;;5054372;28;20029;-77
2023/08/21 05:15:37;;;;;;;9.10;4.75;;;;;;;;;;5039791;28;20021;-76
2023/08/21 05:18:02;;;;;;;9.48;5.22;;;;;;;;;;5054546;28;20029;-76
2023/08/21 05:20:28;;;;;;;14.20;5.63;;;;;;;;;;5036489;28;20037;-77
2023/08/21 05:22:54;;;;;;;9.57;5.35;;;;;;;;;;5035918;28;20491;-77
2023/08/21 05:25:19;;;;;;;12.40;5.50;;;;;;;;;;5052217;28;20108;-77
2023/08/21 05:27:46;;;;;;;8.50;4.47;;;;;;;;;;5053397;28;20029;-77
2023/08/21 05:30:13;;;;;;;8.18;4.70;;;;;;;;;;5042806;28;20400;-77
2023/08/21 05:32:39;;;;;;;8.07;4.93;;;;;;;;;;5049823;28;20021;-76
2023/08/21 05:35:04;;;;;;;15.27;5.53;;;;;;;;;;5052421;28;20043;-77
2023/08/21 05:37:30;;;;;;;11.32;5.30;;;;;;;;;;5018564;28;20391;-77
2023/08/21 05:39:56;;;;;;;16.70;7.07;;;;;;;;;;5036676;28;20105;-75
2023/08/21 05:42:22;;;;;;;11.18;6.15;;;;;;;;;;5047303;28;20264;-76
2023/08/21 05:44:48;;;;;;;10.95;5.45;;;;;;;;;;5052132;28;20068;-77
2023/08/21 05:47:13;;;;;;;13.85;5.88;;;;;;;;;;5052516;28;20033;-78
2023/08/21 05:49:39;;;;;;;15.80;5.95;;;;;;;;;;5054503;28;20037;-76
2023/08/21 05:52:04;;;;;;;10.18;5.25;;;;;;;;;;5037493;28;20040;-76
2023/08/21 05:54:30;;;;;;;11.70;5.38;;;;;;;;;;5053682;28;20437;-75
2023/08/21 05:56:56;;;;;;;12.52;5.65;;;;;;;;;;5053771;28;20369;-76
2023/08/21 05:59:31;;;;;;;13.27;5.20;;;;;;;;;;5053628;28;20017;-76
2023/08/21 06:01:59;;;;;;;8.83;5.43;;;;;;;;;;5053473;28;20053;-76
2023/08/21 06:04:27;;;;;;;15.18;5.35;;;;;;;;;;5035161;28;20124;-77
2023/08/21 06:07:00;;;;;;;12.90;5.57;;;;;;;;;;5051547;28;20036;-78
2023/08/21 06:09:26;;;;;;;12.80;5.53;;;;;;;;;;5051042;28;20383;-78
2023/08/21 06:11:51;;;;;;;8.55;4.72;;;;;;;;;;5051374;28;20399;-77
2023/08/21 06:14:17;;;;;;;10.38;4.97;;;;;;;;;;5034891;28;20094;-76
2023/08/21 06:16:44;;;;;;;10.43;4.97;;;;;;;;;;5052061;28;20041;-76
2023/08/21 06:19:10;;;;;;;18.40;5.53;;;;;;;;;;5035819;28;20028;-77
2023/08/21 06:21:36;;;;;;;13.82;5.47;;;;;;;;;;5035583;28;20319;-76
2023/08/21 06:24:02;;;;;;;12.98;4.88;;;;;;;;;;5018992;28;20076;-76
2023/08/21 06:26:27;;;;;;;11.90;4.95;;;;;;;;;;5051335;28;20029;-76
2023/08/21 06:28:53;;;;;;;8.65;4.80;;;;;;;;;;5051333;28;20100;-76
2023/08/21 06:31:18;;;;;;;11.45;5.60;;;;;;;;;;5050912;28;20040;-77
2023/08/21 06:33:44;;;;;;;11.38;4.95;;;;;;;;;;5034305;28;20033;-76
2023/08/21 06:36:10;;;;;;;9.77;4.57;;;;;;;;;;5052259;28;20073;-78
2023/08/21 06:38:36;;;;;;;12.43;4.35;;;;;;;;;;5050371;28;20067;-77
2023/08/21 06:41:02;;;;;;;12.55;4.65;;;;;;;;;;5046347;28;20056;-76
2023/08/21 06:43:27;;;;;;;10.40;4.45;;;;;;;;;;5038699;28;20021;-76
2023/08/21 06:45:55;;;;;;;10.07;3.95;;;;;;;;;;5050683;28;20040;-77
2023/08/21 06:48:21;;;;;;;11.02;5.15;;;;;;;;;;5042791;28;20084;-77
2023/08/21 06:50:47;;;;;;;7.47;5.03;;;;;;;;;;5031216;28;20135;-76
2023/08/21 06:53:12;;;;;;;16.92;9.20;;;;;;;;;;5051218;28;20104;-77
2023/08/21 06:55:38;;;;;;;8.63;4.10;;;;;;;;;;5051486;28;20025;-77
2023/08/21 06:58:03;;;;;;;11.82;4.28;;;;;;;;;;5051574;28;20024;-76
2023/08/21 07:00:29;;;;;;;11.90;5.97;;;;;;;;;;5050204;28;20029;-77
2023/08/21 07:02:54;;;;;;;11.52;4.45;;;;;;;;;;5051126;28;20024;-76
2023/08/21 07:05:20;;;;;;;12.23;4.32;;;;;;;;;;5051633;28;20086;-76
2023/08/21 07:07:45;;;;;;;7.95;4.00;;;;;;;;;;5051221;28;20024;-76
2023/08/21 07:10:11;;;;;;;11.50;4.47;;;;;;;;;;5051063;28;20037;-77
2023/08/21 07:12:37;;;;;;;7.45;3.55;;;;;;;;;;5049376;28;20039;-77
2023/08/21 07:15:03;;;;;;;7.75;4.05;;;;;;;;;;5051453;28;20535;-78
2023/08/21 07:17:29;;;;;;;12.75;4.40;;;;;;;;;;5050110;28;20025;-77
2023/08/21 07:19:54;;;;;;;7.55;3.80;;;;;;;;;;5049998;28;20491;-77
2023/08/21 07:22:20;;;;;;;7.82;4.25;;;;;;;;;;5050550;28;20104;-77
2023/08/21 07:24:46;;;;;;;6.82;4.03;;;;;;;;;;5040124;28;20098;-77
2023/08/21 07:27:11;;;;;;;12.95;4.50;;;;;;;;;;5037239;28;20029;-77
2023/08/21 07:29:37;;;;;;;13.93;5.05;;;;;;;;;;5049154;28;20033;-76
2023/08/21 07:32:02;;;;;;;11.23;4.50;;;;;;;;;;5048333;28;20056;-77
2023/08/21 07:34:28;;;;;;;9.35;4.30;;;;;;;;;;5050724;28;20040;-78
2023/08/21 07:36:53;;;;;;;9.90;3.63;;;;;;;;;;5050503;28;20021;-76
2023/08/21 07:39:19;;;;;;;8.27;4.18;;;;;;;;;;5045029;28;20072;-77
2023/08/21 07:41:44;;;;;;;7.57;4.50;;;;;;;;;;5041928;28;20451;-77
2023/08/21 07:44:10;;;;;;;10.45;4.28;;;;;;;;;;5051337;28;20033;-77
2023/08/21 07:46:35;;;;;;;8.80;4.18;;;;;;;;;;5026722;28;20108;-78
2023/08/21 07:49:01;;;;;;;14.55;5.90;;;;;;;;;;5050530;28;20017;-77
2023/08/21 07:51:27;;;;;;;10.85;5.20;;;;;;;;;;5049239;28;20031;-77
2023/08/21 07:53:52;;;;;;;12.65;5.45;;;;;;;;;;5046996;28;20469;-76
2023/08/21 07:56:18;;;;;;;10.15;5.40;;;;;;;;;;5046556;28;20017;-77
2023/08/21 07:58:44;;;;;;;13.32;5.57;;;;;;;;;;5042983;28;20333;-76
2023/08/21 08:01:09;;;;;;;10.00;4.72;;;;;;;;;;5045340;28;20021;-75
2023/08/21 08:03:35;;;;;;;13.35;5.13;;;;;;;;;;5044492;28;20452;-76
2023/08/21 08:06:00;;;;;;;9.93;4.80;;;;;;;;;;5045542;28;20434;-77
2023/08/21 08:08:26;;;;;;;15.05;6.50;;;;;;;;;;5044227;28;20021;-77
2023/08/21 08:10:52;;;;;;;11.50;5.50;;;;;;;;;;5048905;28;20032;-76
2023/08/21 08:13:17;;;;;;;12.10;5.55;;;;;;;;;;5045313;28;20108;-76
2023/08/21 08:15:43;;;;;;;11.65;5.57;;;;;;;;;;5051299;28;20025;-76
2023/08/21 08:18:12;;;;;;;11.30;5.43;;;;;;;;;;5078753;28;20032;-77
2023/08/21 08:20:38;;;;;;;9.48;5.50;;;;;;;;;;5056890;28;20243;-75
2023/08/21 08:23:03;;;;;;;11.27;5.47;;;;;;;;;;5053384;28;20022;-76
2023/08/21 08:25:29;;;;;;;12.07;5.30;;;;;;;;;;5057443;28;20484;-76
2023/08/21 08:27:54;;;;;;;8.45;5.10;;;;;;;;;;5059221;28;20037;-76
2023/08/21 08:30:20;;;;;;;10.05;5.13;;;;;;;;;;5061114;28;20036;-78
2023/08/21 08:32:45;;;;;;;14.60;4.82;;;;;;;;;;5048550;28;20038;-77
2023/08/21 08:35:14;;;;;;;9.15;4.68;;;;;;;;;;5047868;28;20167;-78
2023/08/21 08:37:43;;;;;;;12.68;5.10;;;;;;;;;;5048037;28;20017;-76
2023/08/21 08:40:09;;;;;;;12.07;4.10;;;;;;;;;;5055217;28;20029;-76
2023/08/21 08:42:36;;;;;;;13.00;4.47;;;;;;;;;;5048611;28;20504;-76
2023/08/21 08:45:03;;;;;;;11.00;4.00;;;;;;;;;;5030674;28;20039;-77
2023/08/21 08:47:33;;;;;;;11.20;4.00;;;;;;;;;;5036112;28;20057;-78
2023/08/21 08:50:01;;;;;;;12.18;3.80;;;;;;;;;;5053695;28;20110;-78
2023/08/21 08:52:27;;;;;;;7.65;4.22;;;;;;;;;;5056614;28;20082;-78
2023/08/21 08:54:55;;;;;;;9.60;4.50;;;;;;;;;;5064985;28;20032;-79
2023/08/21 08:57:20;;;;;;;9.40;5.00;;;;;;;;;;5063350;28;20098;-78
2023/08/21 08:59:46;;;;;;;10.20;5.47;;;;;;;;;;5051481;28;20461;-78
2023/08/21 09:02:11;;;;;;;18.88;4.20;;;;;;;;;;5047757;28;20026;-78
2023/08/21 09:04:37;;;;;;;8.95;3.97;;;;;;;;;;5046284;28;20028;-80
2023/08/21 09:07:06;;;;;;;7.90;3.90;;;;;;;;;;5053731;28;20117;-80
2023/08/21 09:09:39;;;;;;;8.48;3.78;;;;;;;;;;5052542;28;20032;-79
2023/08/21 09:12:13;;;;;;;7.10;3.60;;;;;;;;;;5044398;28;20029;-79
2023/08/21 09:14:40;;;;;;;6.35;3.63;;;;;;;;;;5092734;22;20056;-83
2023/08/21 09:17:09;;;;;;;96.50;69.93;;;;;;;;;;5061527;28;20032;-85
2023/08/21 09:19:34;;;;;;;34.78;25.05;;;;;;;;;;5098127;28;20471;-84
2023/08/21 09:22:07;;;;;;;11.13;3.92;;;;;;;;;;5097855;28;20040;-84
2023/08/21 09:24:33;;;;;;;8.48;3.70;;;;;;;;;;5091264;28;20502;-84
2023/08/21 09:27:01;;;;;;;9.88;3.72;;;;;;;;;;5094271;28;20028;-83
2023/08/21 09:29:27;;;;;;;17.52;4.18;;;;;;;;;;5110951;28;20039;-83
2023/08/21 09:31:55;;;;;;;7.45;3.30;;;;;;;;;;5089851;28;20040;-83
2023/08/21 09:34:22;;;;;;;8.60;3.05;;;;;;;;;;5098034;28;20107;-84
2023/08/21 09:36:54;;;;;;;6.85;3.30;;;;;;;;;;5116923;28;20093;-84
2023/08/21 09:39:19;;;;;;;10.52;3.28;;;;;;;;;;5107193;28;20089;-83
2023/08/21 09:41:56;;;;;;;9.23;3.28;;;;;;;;;;5104487;28;20032;-82
2023/08/21 09:44:21;;;;;;;11.65;3.20;;;;;;;;;;5088334;28;20027;-82
2023/08/21 09:46:50;;;;;;;10.07;3.05;;;;;;;;;;5106863;28;20039;-83
2023/08/21 09:49:17;;;;;;;11.27;3.15;;;;;;;;;;5090030;28;20458;-83
2023/08/21 09:51:44;;;;;;;12.20;3.53;;;;;;;;;;5119592;28;20398;-83
2023/08/21 09:54:14;;;;;;;7.38;2.95;;;;;;;;;;5117889;28;20027;-82
2023/08/21 09:56:40;;;;;;;7.65;3.10;;;;;;;;;;5100666;28;20031;-84
2023/08/21 09:59:06;;;;;;;6.35;2.80;;;;;;;;;;5086567;28;20096;-83
2023/08/21 10:01:36;;;;;;;10.20;3.15;;;;;;;;;;5107651;28;20038;-82
2023/08/21 10:04:04;;;;;;;7.80;3.13;;;;;;;;;;5103276;28;20061;-83
2023/08/21 10:06:30;;;;;;;5.80;3.15;;;;;;;;;;5099784;28;20039;-84
2023/08/21 10:08:56;;;;;;;6.78;2.70;;;;;;;;;;5101810;28;20024;-84
2023/08/21 10:11:22;;;;;;;6.43;2.83;;;;;;;;;;5097242;28;20077;-85
2023/08/21 10:13:50;;;;;;;9.00;2.83;;;;;;;;;;5089737;28;20041;-85
2023/08/21 10:16:16;;;;;;;9.38;2.70;;;;;;;;;;5103363;28;20050;-85
2023/08/21 10:18:43;;;;;;;8.20;2.40;;;;;;;;;;5111485;28;20091;-84
2023/08/21 10:21:13;;;;;;;8.93;2.90;;;;;;;;;;5120119;28;20030;-84
2023/08/21 10:23:40;;;;;;;6.93;2.53;;;;;;;;;;5109248;28;20035;-85
2023/08/21 10:26:06;;;;;;;4.30;2.10;;;;;;;;;;5111855;28;20032;-85
2023/08/21 10:28:52;;;;;;;6.80;2.60;;;;;;;;;;5103527;28;20051;-84
2023/08/21 10:31:32;;;;;;;5.47;2.90;;;;;;;;;;5116748;28;20028;-85
2023/08/21 10:33:59;;;;;;;8.15;2.53;;;;;;;;;;5110385;28;20024;-84
2023/08/21 10:36:43;;;;;;;7.07;3.20;;;;;;;;;;5121948;28;20038;-82
2023/08/21 10:39:16;;;;;;;4.53;2.60;;;;;;;;;;5114080;28;20087;-86
2023/08/21 10:42:00;;;;;;;9.35;2.70;;;;;;;;;;5121593;28;20457;-84
2023/08/21 10:44:51;;;;;;;6.22;2.50;;;;;;;;;;5111671;28;20042;-85
2023/08/21 10:47:30;;;;;;;4.95;2.15;;;;;;;;;;5113259;28;20020;-84
2023/08/21 10:50:00;;;;;;;6.72;2.80;;;;;;;;;;5100306;28;20039;-85
2023/08/21 10:52:46;;;;;;;8.25;2.70;;;;;;;;;;5118884;28;20063;-85
2023/08/21 10:55:18;;;;;;;8.50;2.60;;;;;;;;;;5106670;28;20020;-85
2023/08/21 10:57:51;;;;;;;110.05;78.10;;;;;;;;;;5091353;28;20039;-82
2023/08/21 11:00:18;;;;;;;48.17;34.72;;;;;;;;;;5109578;28;20035;-83
2023/08/21 11:02:44;;;;;;;26.38;17.77;;;;;;;;;;5110546;28;20031;-82
2023/08/21 11:05:11;;;;;;;13.25;7.50;;;;;;;;;;5106610;28;20459;-82
2023/08/21 11:07:38;;;;;;;6.75;3.13;;;;;;;;;;5106002;28;20031;-82
2023/08/21 11:10:05;;;;;;;5.50;2.25;;;;;;;;;;5109153;28;20020;-83
2023/08/21 11:12:30;;;;;;;8.43;2.47;;;;;;;;;;5103674;28;20030;-82
2023/08/21 11:14:56;;;;;;;5.72;2.10;;;;;;;;;;5104498;28;20027;-82
2023/08/21 11:17:23;;;;;;;5.60;2.20;;;;;;;;;;5090886;28;20028;-81
2023/08/21 11:19:49;;;;;;;4.80;2.10;;;;;;;;;;5102392;28;20089;-82
2023/08/21 11:22:15;;;;;;;4.00;1.90;;;;;;;;;;5097596;28;20467;-82
2023/08/21 11:24:45;;;;;;;5.18;2.05;;;;;;;;;;5090601;28;20024;-83
2023/08/21 11:27:12;;;;;;;7.95;2.22;;;;;;;;;;5096344;28;20028;-83
2023/08/21 11:29:50;;;;;;;5.82;2.00;;;;;;;;;;5083873;28;20493;-83
2023/08/21 11:32:18;;;;;;;3.88;2.00;;;;;;;;;;5088497;28;20036;-82
2023/08/21 11:34:51;;;;;;;5.05;2.08;;;;;;;;;;5111645;28;20020;-82
2023/08/21 11:37:26;;;;;;;6.10;2.05;;;;;;;;;;5091348;28;20479;-84
2023/08/21 11:39:53;;;;;;;5.80;2.08;;;;;;;;;;5098870;28;20049;-82
2023/08/21 11:42:19;;;;;;;7.47;2.35;;;;;;;;;;5115979;28;20042;-83
2023/08/21 11:44:46;;;;;;;5.50;1.90;;;;;;;;;;5114932;28;20031;-85
2023/08/21 11:47:13;;;;;;;3.80;1.63;;;;;;;;;;5063278;28;20036;-83
2023/08/21 11:49:42;;;;;;;5.63;2.10;;;;;;;;;;5098790;28;20137;-83
2023/08/21 11:52:09;;;;;;;9.45;2.05;;;;;;;;;;5109826;28;20036;-83
2023/08/21 11:54:35;;;;;;;7.22;2.33;;;;;;;;;;5062475;28;20032;-81
2023/08/21 11:57:05;;;;;;;5.22;1.63;;;;;;;;;;5110179;28;20474;-82
2023/08/21 11:59:31;;;;;;;7.15;2.22;;;;;;;;;;5107102;28;20024;-82
2023/08/21 12:01:56;;;;;;;4.88;2.58;;;;;;;;;;5104489;28;20028;-82
2023/08/21 12:04:22;;;;;;;6.65;2.40;;;;;;;;;;5111477;28;20038;-83
2023/08/21 12:06:48;;;;;;;6.63;2.40;;;;;;;;;;5106841;28;20027;-83
2023/08/21 12:09:13;;;;;;;5.32;2.67;;;;;;;;;;5108072;28;20032;-83
2023/08/21 12:11:39;;;;;;;4.53;2.30;;;;;;;;;;5119890;28;20076;-83
2023/08/21 12:14:05;;;;;;;4.88;2.55;;;;;;;;;;5103611;28;20479;-83
2023/08/21 12:16:30;;;;;;;5.88;2.55;;;;;;;;;;5111494;28;20036;-83
2023/08/21 12:18:57;;;;;;;3.97;2.00;;;;;;;;;;5104929;28;20035;-83
2023/08/21 12:21:26;;;;;;;4.25;2.30;;;;;;;;;;5107066;28;20384;-82
2023/08/21 12:23:52;;;;;;;5.55;3.30;;;;;;;;;;5095505;28;20032;-82
2023/08/21 12:26:26;;;;;;;6.38;2.17;;;;;;;;;;5107395;28;20082;-82
2023/08/21 12:28:52;;;;;;;143.63;132.35;;;;;;;;;;5099655;28;20036;-83
2023/08/21 12:31:17;;;;;;;8.45;6.60;;;;;;;;;;5106111;28;20045;-84
2023/08/21 12:33:43;;;;;;;4.68;3.10;;;;;;;;;;5094454;28;20435;-85
2023/08/21 12:36:09;;;;;;;5.00;2.42;;;;;;;;;;5081502;28;20032;-85
2023/08/21 12:38:34;;;;;;;6.85;1.92;;;;;;;;;;5105280;28;20470;-85
2023/08/21 12:41:01;;;;;;;4.20;1.70;;;;;;;;;;5119621;28;20394;-86
2023/08/21 12:43:27;;;;;;;4.72;2.00;;;;;;;;;;5115560;28;20088;-85
2023/08/21 12:45:53;;;;;;;6.40;2.55;;;;;;;;;;5092965;28;20435;-85
2023/08/21 12:48:18;;;;;;;5.63;2.45;;;;;;;;;;5101858;28;20216;-85
2023/08/21 12:50:44;;;;;;;6.13;2.28;;;;;;;;;;5083244;28;20046;-84
2023/08/21 12:53:09;;;;;;;5.65;2.28;;;;;;;;;;5093480;28;20031;-84
2023/08/21 12:55:35;;;;;;;5.20;2.03;;;;;;;;;;5111711;28;20024;-85
2023/08/21 12:58:01;;;;;;;5.07;2.00;;;;;;;;;;5112077;28;20390;-84
2023/08/21 13:00:27;;;;;;;6.78;2.40;;;;;;;;;;5085294;28;20100;-85
2023/08/21 13:02:52;;;;;;;5.15;2.30;;;;;;;;;;5110477;28;20030;-85
2023/08/21 13:05:18;;;;;;;20.48;7.18;;;;;;;;;;5072068;28;20088;-84
2023/08/21 13:07:44;;;;;;;16.23;7.25;;;;;;;;;;5102884;28;20016;-86
2023/08/21 13:10:12;;;;;;;14.77;6.45;;;;;;;;;;5096548;28;20024;-84
2023/08/21 13:12:38;;;;;;;24.05;8.50;;;;;;;;;;5064221;28;20072;-85
2023/08/21 13:15:04;;;;;;;18.08;7.53;;;;;;;;;;5094932;28;20027;-86
2023/08/21 13:17:29;;;;;;;9.98;5.10;;;;;;;;;;5081068;28;20020;-86
2023/08/21 13:19:55;;;;;;;9.90;4.30;;;;;;;;;;5113873;28;20023;-85
2023/08/21 13:22:21;;;;;;;7.60;3.28;;;;;;;;;;5097913;28;20043;-85
2023/08/21 13:24:46;;;;;;;7.80;2.50;;;;;;;;;;5110152;28;20039;-85
2023/08/21 13:27:12;;;;;;;6.50;2.45;;;;;;;;;;5098843;28;20047;-85
2023/08/21 13:29:38;;;;;;;5.88;2.60;;;;;;;;;;5087338;28;20059;-85
2023/08/21 13:32:03;;;;;;;7.28;2.50;;;;;;;;;;5105491;28;20104;-85
2023/08/21 13:34:29;;;;;;;3.80;2.40;;;;;;;;;;5096032;28;20413;-86
2023/08/21 13:36:55;;;;;;;7.18;2.70;;;;;;;;;;5096028;28;20382;-86
2023/08/21 13:39:22;;;;;;;7.28;3.08;;;;;;;;;;5089151;28;20081;-85
2023/08/21 13:41:48;;;;;;;6.10;3.20;;;;;;;;;;5109985;28;20032;-85
2023/08/21 13:44:14;;;;;;;5.82;2.58;;;;;;;;;;5112046;28;20043;-86
2023/08/21 13:46:40;;;;;;;7.00;2.65;;;;;;;;;;5080632;28;20042;-85
2023/08/21 13:49:06;;;;;;;165.75;149.40;;;;;;;;;;5096485;28;20118;-86
2023/08/21 13:51:31;;;;;;;12.88;8.15;;;;;;;;;;5096163;28;20054;-85
2023/08/21 13:53:57;;;;;;;10.57;6.53;;;;;;;;;;5094156;28;20052;-84
2023/08/21 13:56:23;;;;;;;13.57;8.27;;;;;;;;;;5087300;28;20028;-86
2023/08/21 13:58:48;;;;;;;9.15;5.07;;;;;;;;;;5062091;28;20067;-85
2023/08/21 14:01:14;;;;;;;9.30;3.30;;;;;;;;;;5086608;28;20059;-86
2023/08/21 14:03:40;;;;;;;5.18;3.03;;;;;;;;;;5089061;28;20489;-84
2023/08/21 14:06:05;;;;;;;5.13;2.60;;;;;;;;;;5087662;28;20101;-86
2023/08/21 14:08:31;;;;;;;5.78;2.67;;;;;;;;;;5110943;28;20106;-85
2023/08/21 14:10:57;;;;;;;7.00;2.88;;;;;;;;;;5105822;28;20024;-85
2023/08/21 14:13:23;;;;;;;3.92;2.42;;;;;;;;;;5083240;28;20065;-84
2023/08/21 14:15:49;;;;;;;4.97;2.60;;;;;;;;;;5090430;28;20471;-84
2023/08/21 14:18:14;;;;;;;5.22;2.42;;;;;;;;;;5098407;28;20035;-85
2023/08/21 14:20:41;;;;;;;5.18;2.30;;;;;;;;;;5076067;28;20089;-84
2023/08/21 14:23:07;;;;;;;6.97;2.70;;;;;;;;;;5098688;28;20015;-84
2023/08/21 14:25:33;;;;;;;6.28;2.30;;;;;;;;;;5096978;28;20020;-83
2023/08/21 14:27:58;;;;;;;4.25;2.35;;;;;;;;;;5107793;28;20023;-84
2023/08/21 14:30:24;;;;;;;4.18;2.15;;;;;;;;;;5099355;28;20028;-83
2023/08/21 14:32:49;;;;;;;4.15;1.98;;;;;;;;;;5108897;28;20500;-85
2023/08/21 14:35:15;;;;;;;8.65;2.60;;;;;;;;;;5082495;28;20015;-84
2023/08/21 14:37:40;;;;;;;5.30;2.30;;;;;;;;;;5109203;28;20016;-84